Time;durP1;ratioP1;P1;durP2;ratioP2;P2;SDS_P1;SDS_P2;PMS_P1;PMS_P2;Temp;Humidity;BMP_temperature;BMP_pressure;BME280_temperature;BME280_humidity;BME280_pressure;Samples;Min_cycle;Max_cycle;Signal;HPM_P1;HPM_P2
2021/06/29 00:02:10;;;;;;;4.35;2.92;;;22.50;99.90;;;;;;4993190;28;20026;-71
2021/06/29 00:04:35;;;;;;;4.15;3.13;;;22.50;99.90;;;;;;5008354;28;20050;-72
2021/06/29 00:07:01;;;;;;;4.75;3.90;;;22.50;99.90;;;;;;4993352;28;21580;-71
2021/06/29 00:09:26;;;;;;;4.05;3.30;;;22.50;99.90;;;;;;4992957;28;20080;-73
2021/06/29 00:11:52;;;;;;;5.05;3.83;;;22.50;99.90;;;;;;4993520;28;20022;-71
2021/06/29 00:14:18;;;;;;;4.75;4.13;;;22.50;99.90;;;;;;4993606;28;20394;-71
2021/06/29 00:16:43;;;;;;;4.85;3.97;;;22.50;99.90;;;;;;4992756;28;20491;-71
2021/06/29 00:19:09;;;;;;;4.65;3.78;;;22.40;99.90;;;;;;4993682;28;20034;-71
2021/06/29 00:21:34;;;;;;;5.68;4.22;;;22.50;99.90;;;;;;4992692;28;20030;-72
2021/06/29 00:24:00;;;;;;;5.07;4.50;;;22.50;99.90;;;;;;4993183;28;20458;-73
2021/06/29 00:26:26;;;;;;;5.75;4.43;;;22.40;99.90;;;;;;4993516;28;20398;-72
2021/06/29 00:28:51;;;;;;;7.38;4.82;;;22.40;99.90;;;;;;4993016;28;20065;-71
2021/06/29 00:31:17;;;;;;;6.70;4.75;;;22.40;99.90;;;;;;4993240;28;20105;-71
2021/06/29 00:33:43;;;;;;;7.82;6.15;;;22.40;99.90;;;;;;4992749;28;20036;-72
2021/06/29 00:36:14;;;;;;;7.53;5.47;;;22.40;99.90;;;;;;4992848;28;20014;-72
2021/06/29 00:38:40;;;;;;;8.02;6.05;;;22.40;99.90;;;;;;5007981;28;20026;-72
2021/06/29 00:41:06;;;;;;;11.50;6.28;;;22.40;99.90;;;;;;4992954;28;20026;-72
2021/06/29 00:43:31;;;;;;;9.32;6.38;;;22.40;99.90;;;;;;4991774;28;20026;-72
2021/06/29 00:45:57;;;;;;;8.68;6.50;;;22.40;99.90;;;;;;4993211;28;20084;-72
2021/06/29 00:48:22;;;;;;;8.57;6.28;;;22.40;99.90;;;;;;4992375;28;20499;-73
2021/06/29 00:50:48;;;;;;;9.93;6.78;;;22.40;99.90;;;;;;4992062;28;20037;-72
2021/06/29 00:53:15;;;;;;;8.73;7.35;;;22.40;99.90;;;;;;4992934;28;20041;-73
2021/06/29 00:55:42;;;;;;;9.90;7.75;;;22.40;99.90;;;;;;4992771;28;20073;-74
2021/06/29 00:58:09;;;;;;;10.18;7.60;;;22.40;99.90;;;;;;4993107;28;20027;-74
2021/06/29 01:00:36;;;;;;;12.57;8.75;;;22.40;99.90;;;;;;4992111;28;20065;-74
2021/06/29 01:03:03;;;;;;;10.45;7.40;;;22.40;99.90;;;;;;4992092;28;20022;-73
2021/06/29 01:05:28;;;;;;;9.52;7.85;;;22.40;99.90;;;;;;4993242;28;20026;-72
2021/06/29 01:07:54;;;;;;;10.02;8.50;;;22.30;99.90;;;;;;4992661;28;20053;-73
2021/06/29 01:10:20;;;;;;;10.40;8.35;;;22.30;99.90;;;;;;4991641;28;20030;-72
2021/06/29 01:12:46;;;;;;;11.07;8.48;;;22.30;99.90;;;;;;4992213;28;20108;-73
2021/06/29 01:15:12;;;;;;;10.82;7.88;;;22.30;99.90;;;;;;4991899;28;20526;-73
2021/06/29 01:17:38;;;;;;;13.45;8.80;;;22.30;99.90;;;;;;4991827;28;20026;-72
2021/06/29 01:20:09;;;;;;;12.07;9.07;;;22.30;99.90;;;;;;4991367;28;20049;-74
2021/06/29 01:22:34;;;;;;;12.98;8.88;;;22.30;99.90;;;;;;4991737;28;20030;-75
2021/06/29 01:25:00;;;;;;;13.02;9.30;;;22.30;99.90;;;;;;4991893;28;20086;-74
2021/06/29 01:27:33;;;;;;;13.52;10.02;;;22.30;99.90;;;;;;4992330;28;20069;-73
2021/06/29 01:32:27;;;;;;;13.88;10.15;;;22.30;99.90;;;;;;4991692;28;20030;-72
2021/06/29 01:34:53;;;;;;;15.20;9.98;;;22.30;99.90;;;;;;4990821;28;20406;-73
2021/06/29 01:37:19;;;;;;;12.27;9.60;;;22.30;99.90;;;;;;4992203;28;20033;-74
2021/06/29 01:39:56;;;;;;;10.88;9.27;;;22.30;99.90;;;;;;4991814;28;20552;-71
2021/06/29 01:42:21;;;;;;;12.82;8.85;;;22.30;99.90;;;;;;4991944;28;20026;-71
2021/06/29 01:44:47;;;;;;;10.30;8.23;;;22.30;99.90;;;;;;4991714;28;20029;-74
2021/06/29 01:47:23;;;;;;;11.68;8.88;;;22.30;99.90;;;;;;4992091;28;20035;-72
2021/06/29 01:49:49;;;;;;;12.63;9.77;;;22.30;99.90;;;;;;4990756;28;20065;-73
2021/06/29 01:52:14;;;;;;;12.60;8.82;;;22.30;99.90;;;;;;4992113;28;20061;-73
2021/06/29 01:54:41;;;;;;;10.55;8.15;;;22.30;99.90;;;;;;4991340;28;20494;-73
2021/06/29 01:57:07;;;;;;;9.73;7.43;;;22.30;99.90;;;;;;4991985;28;20027;-72
2021/06/29 01:59:32;;;;;;;12.77;7.70;;;22.30;99.90;;;;;;4991437;28;20014;-74
2021/06/29 02:01:58;;;;;;;10.40;8.00;;;22.30;99.90;;;;;;4991239;28;20034;-73
2021/06/29 02:04:24;;;;;;;11.13;7.93;;;22.20;99.90;;;;;;4991284;28;20035;-73
2021/06/29 02:06:50;;;;;;;9.82;7.43;;;22.30;99.90;;;;;;4991354;28;20482;-74
2021/06/29 02:09:16;;;;;;;10.48;8.07;;;22.20;99.90;;;;;;4991396;28;20080;-72
2021/06/29 02:11:42;;;;;;;8.90;7.00;;;22.20;99.90;;;;;;4991265;28;20061;-74
2021/06/29 02:14:08;;;;;;;10.98;6.75;;;22.20;99.90;;;;;;4991608;28;20447;-71
2021/06/29 02:16:34;;;;;;;9.57;7.30;;;22.20;99.90;;;;;;4991332;28;20027;-72
2021/06/29 02:19:00;;;;;;;9.10;6.55;;;22.20;99.90;;;;;;4991030;28;20022;-73
2021/06/29 02:21:26;;;;;;;10.75;6.38;;;22.20;99.90;;;;;;5003642;28;20089;-71
2021/06/29 02:23:52;;;;;;;9.05;5.55;;;22.20;99.90;;;;;;4991879;28;20037;-73
2021/06/29 02:26:18;;;;;;;8.88;6.38;;;22.20;99.90;;;;;;4994830;28;20076;-74
2021/06/29 02:28:43;;;;;;;7.20;5.60;;;22.20;99.90;;;;;;4995566;28;20038;-71
2021/06/29 02:31:10;;;;;;;7.40;6.10;;;22.20;99.90;;;;;;4995195;28;20041;-73
2021/06/29 02:33:36;;;;;;;6.82;5.45;;;22.20;99.90;;;;;;4994620;28;20041;-75
2021/06/29 02:36:02;;;;;;;8.38;5.53;;;22.20;99.90;;;;;;4995503;28;20399;-74
2021/06/29 02:38:27;;;;;;;6.53;5.40;;;22.20;99.90;;;;;;4995722;28;20030;-74
2021/06/29 02:40:54;;;;;;;8.13;5.55;;;22.10;99.90;;;;;;4994813;28;20447;-73
2021/06/29 02:43:20;;;;;;;7.10;5.03;;;22.10;99.90;;;;;;4995145;28;20022;-74
2021/06/29 02:45:45;;;;;;;8.63;5.50;;;22.10;99.90;;;;;;4994794;28;20026;-73
2021/06/29 02:48:11;;;;;;;9.20;5.60;;;22.10;99.90;;;;;;4994657;28;20117;-74
2021/06/29 02:50:38;;;;;;;5.97;4.50;;;22.10;99.90;;;;;;4994335;28;20034;-74
2021/06/29 02:53:03;;;;;;;7.30;4.60;;;22.10;99.90;;;;;;4994760;28;20035;-72
2021/06/29 02:55:29;;;;;;;7.35;4.90;;;22.10;99.90;;;;;;4995526;28;20479;-73
2021/06/29 02:57:55;;;;;;;6.07;4.30;;;22.10;99.90;;;;;;4995066;28;20022;-71
2021/06/29 03:00:21;;;;;;;6.07;4.10;;;22.10;99.90;;;;;;4994949;28;20744;-74
2021/06/29 03:02:47;;;;;;;6.80;4.90;;;22.10;99.90;;;;;;4994269;28;20033;-73
2021/06/29 03:05:14;;;;;;;6.13;4.78;;;22.10;99.90;;;;;;4988719;28;20058;-73
2021/06/29 03:07:40;;;;;;;6.82;4.90;;;22.10;99.90;;;;;;4994126;28;20092;-72
2021/06/29 03:10:07;;;;;;;7.45;4.28;;;22.10;99.90;;;;;;4993831;28;20030;-73
2021/06/29 03:12:33;;;;;;;5.20;3.95;;;22.10;99.90;;;;;;4993215;28;20073;-71
2021/06/29 03:15:01;;;;;;;7.05;4.38;;;22.10;99.90;;;;;;4993881;28;20026;-72
2021/06/29 03:17:27;;;;;;;5.10;4.00;;;22.00;99.90;;;;;;4995335;28;20449;-72
2021/06/29 03:19:52;;;;;;;6.40;4.10;;;22.00;99.90;;;;;;4993658;28;20474;-72
2021/06/29 03:22:19;;;;;;;7.57;3.78;;;22.10;99.90;;;;;;4993854;28;20031;-71
2021/06/29 03:24:45;;;;;;;5.95;3.97;;;22.10;99.90;;;;;;4993625;28;20026;-72
2021/06/29 03:27:11;;;;;;;4.28;3.00;;;22.10;99.90;;;;;;4994640;28;20061;-71
2021/06/29 03:29:37;;;;;;;4.35;3.08;;;22.00;99.90;;;;;;4994091;28;20082;-75
2021/06/29 03:32:03;;;;;;;6.20;3.80;;;22.10;99.90;;;;;;4994492;28;20038;-73
2021/06/29 03:34:29;;;;;;;6.47;3.83;;;22.00;99.90;;;;;;4993246;28;20438;-73
2021/06/29 03:36:54;;;;;;;5.68;2.90;;;22.00;99.90;;;;;;4994123;28;20034;-74
2021/06/29 03:39:20;;;;;;;4.88;3.80;;;22.00;99.90;;;;;;5009400;28;20367;-72
2021/06/29 03:41:46;;;;;;;5.22;3.67;;;22.00;99.90;;;;;;4994254;28;20494;-73
2021/06/29 03:44:11;;;;;;;5.88;3.42;;;22.00;99.90;;;;;;4994029;28;20046;-73
2021/06/29 03:46:37;;;;;;;5.28;3.05;;;22.00;99.90;;;;;;4993754;28;20036;-75
2021/06/29 03:49:03;;;;;;;5.07;2.88;;;22.00;99.90;;;;;;4993897;28;20042;-73
2021/06/29 03:51:29;;;;;;;5.18;3.25;;;22.00;99.90;;;;;;4993984;28;20018;-75
2021/06/29 03:53:55;;;;;;;5.43;3.78;;;22.00;99.90;;;;;;4993463;28;20104;-72
2021/06/29 03:56:23;;;;;;;6.25;3.40;;;22.00;99.90;;;;;;4993983;28;20085;-74
2021/06/29 03:58:57;;;;;;;4.20;2.85;;;22.00;99.90;;;;;;4993953;28;20027;-73
2021/06/29 04:01:23;;;;;;;6.38;3.22;;;22.00;99.90;;;;;;4993752;28;20502;-70
2021/06/29 04:03:54;;;;;;;5.95;3.13;;;22.00;99.90;;;;;;4992933;28;20026;-71
2021/06/29 04:06:22;;;;;;;5.22;3.22;;;22.00;99.90;;;;;;4992323;28;20042;-74
2021/06/29 04:08:48;;;;;;;8.13;2.90;;;22.00;99.90;;;;;;4992968;28;20045;-72
2021/06/29 04:11:13;;;;;;;5.05;3.35;;;22.00;99.90;;;;;;4993808;28;20402;-71
2021/06/29 04:13:39;;;;;;;3.55;2.72;;;21.90;99.90;;;;;;4993432;28;20470;-72
2021/06/29 04:16:05;;;;;;;4.85;2.92;;;22.00;99.90;;;;;;4993288;28;20026;-72
2021/06/29 04:18:30;;;;;;;4.90;3.03;;;22.00;99.90;;;;;;4993344;28;20098;-72
2021/06/29 04:20:56;;;;;;;8.65;2.75;;;22.00;99.90;;;;;;4993679;28;20022;-73
2021/06/29 04:23:22;;;;;;;4.68;3.33;;;21.90;99.90;;;;;;4993072;28;20038;-71
2021/06/29 04:25:47;;;;;;;6.00;2.78;;;22.00;99.90;;;;;;4992182;28;20059;-73
2021/06/29 04:28:13;;;;;;;3.40;2.47;;;21.90;99.90;;;;;;4993059;28;20037;-73
2021/06/29 04:30:38;;;;;;;6.03;3.15;;;22.00;99.90;;;;;;4993161;28;20054;-73
2021/06/29 04:33:04;;;;;;;5.18;3.40;;;21.90;99.90;;;;;;4992058;28;20410;-72
2021/06/29 04:35:30;;;;;;;5.20;3.17;;;21.90;99.90;;;;;;4993349;28;20038;-73
2021/06/29 04:37:56;;;;;;;5.00;3.00;;;21.90;99.90;;;;;;4993734;28;20026;-72
2021/06/29 04:40:22;;;;;;;5.88;3.53;;;21.90;99.90;;;;;;4993098;28;20026;-72
2021/06/29 04:42:47;;;;;;;5.63;3.22;;;21.90;99.90;;;;;;4992795;28;20446;-71
2021/06/29 04:45:13;;;;;;;7.03;3.55;;;21.90;99.90;;;;;;4992964;28;20026;-73
2021/06/29 04:47:47;;;;;;;4.22;3.30;;;21.90;99.90;;;;;;4992609;28;20082;-73
2021/06/29 04:50:14;;;;;;;4.78;3.40;;;21.90;99.90;;;;;;4992921;28;20113;-71
2021/06/29 04:52:40;;;;;;;4.28;3.00;;;21.90;99.90;;;;;;4992516;28;20036;-72
2021/06/29 04:55:06;;;;;;;9.00;3.13;;;21.90;99.90;;;;;;5024313;28;20437;-73
2021/06/29 04:57:33;;;;;;;6.25;3.50;;;21.90;99.90;;;;;;4991848;28;20023;-72
2021/06/29 05:00:04;;;;;;;4.88;3.53;;;21.90;99.90;;;;;;4992165;28;20037;-72
2021/06/29 05:02:30;;;;;;;6.55;3.78;;;21.90;99.90;;;;;;4992156;28;20088;-71
2021/06/29 05:04:56;;;;;;;7.63;3.50;;;21.90;99.90;;;;;;4991605;28;20030;-72
2021/06/29 05:07:21;;;;;;;4.40;3.25;;;21.90;99.90;;;;;;4992797;28;20045;-73
2021/06/29 05:09:47;;;;;;;5.43;3.85;;;21.90;99.90;;;;;;4992145;28;20067;-73
2021/06/29 05:12:13;;;;;;;5.20;3.55;;;21.90;99.90;;;;;;4992820;28;20182;-73
2021/06/29 05:14:38;;;;;;;7.45;3.67;;;21.90;99.90;;;;;;4991669;28;20022;-72
2021/06/29 05:17:04;;;;;;;9.32;3.40;;;21.90;99.90;;;;;;4992216;28;20038;-73
2021/06/29 05:19:30;;;;;;;7.32;3.00;;;21.90;99.90;;;;;;4992384;28;20057;-71
2021/06/29 05:21:56;;;;;;;4.18;3.28;;;21.90;99.90;;;;;;4992611;28;20037;-73
2021/06/29 05:24:21;;;;;;;6.43;3.80;;;21.90;99.90;;;;;;4992096;28;20033;-73
2021/06/29 05:26:47;;;;;;;5.07;4.10;;;21.90;99.90;;;;;;4991820;28;20018;-74
2021/06/29 05:29:13;;;;;;;5.47;3.40;;;21.90;99.90;;;;;;4992461;28;20026;-72
2021/06/29 05:31:38;;;;;;;6.07;3.80;;;21.80;99.90;;;;;;4990969;28;20022;-75
2021/06/29 05:34:04;;;;;;;7.10;3.25;;;21.80;99.90;;;;;;4991302;28;20034;-75
2021/06/29 05:36:29;;;;;;;6.63;4.18;;;21.80;99.90;;;;;;4991991;28;20105;-72
2021/06/29 05:38:55;;;;;;;6.78;3.13;;;21.80;99.90;;;;;;4991530;28;20402;-72
2021/06/29 05:41:21;;;;;;;7.78;3.80;;;21.80;99.90;;;;;;4991619;28;20018;-74
2021/06/29 05:43:46;;;;;;;7.00;3.17;;;21.80;99.90;;;;;;4991131;28;20089;-72
2021/06/29 05:46:13;;;;;;;5.07;2.95;;;21.80;99.90;;;;;;4991405;28;20439;-73
2021/06/29 05:48:39;;;;;;;5.68;3.78;;;21.80;99.90;;;;;;4990315;28;20494;-73
2021/06/29 05:51:05;;;;;;;8.60;3.85;;;21.80;99.90;;;;;;4991831;28;20030;-73
2021/06/29 05:53:31;;;;;;;4.88;3.53;;;21.80;99.90;;;;;;4990423;28;20061;-71
2021/06/29 05:55:58;;;;;;;4.30;3.10;;;21.80;99.90;;;;;;4991335;28;20019;-74
2021/06/29 05:58:24;;;;;;;6.88;3.72;;;21.80;99.90;;;;;;4991130;28;20041;-74
2021/06/29 06:00:50;;;;;;;7.28;3.88;;;21.80;99.90;;;;;;4990915;28;20109;-74
2021/06/29 06:03:16;;;;;;;5.13;3.72;;;21.80;99.90;;;;;;4991011;28;20574;-72
2021/06/29 06:05:42;;;;;;;4.22;3.20;;;21.80;99.90;;;;;;4990338;28;20033;-72
2021/06/29 06:08:08;;;;;;;5.05;3.42;;;21.80;99.90;;;;;;4991770;28;20042;-73
2021/06/29 06:10:34;;;;;;;4.72;3.47;;;21.80;99.90;;;;;;4991592;28;20029;-74
2021/06/29 06:13:00;;;;;;;5.40;3.08;;;21.80;99.90;;;;;;4991456;28;20034;-71
2021/06/29 06:15:26;;;;;;;6.35;3.67;;;21.80;99.90;;;;;;4990603;28;20041;-70
2021/06/29 06:17:52;;;;;;;5.80;3.40;;;21.80;99.90;;;;;;4990973;28;20041;-71
2021/06/29 06:20:18;;;;;;;7.40;3.45;;;21.80;99.90;;;;;;4991704;28;20419;-72
2021/06/29 06:22:44;;;;;;;4.00;3.10;;;21.80;99.90;;;;;;4991021;28;20042;-73
2021/06/29 06:25:10;;;;;;;5.82;3.28;;;21.90;99.90;;;;;;4991342;28;20548;-72
2021/06/29 06:27:36;;;;;;;6.28;3.75;;;21.80;99.90;;;;;;4991244;28;20129;-72
2021/06/29 06:30:06;;;;;;;8.18;3.90;;;21.90;99.90;;;;;;4991366;28;20102;-71
2021/06/29 06:32:31;;;;;;;10.38;4.85;;;21.90;99.90;;;;;;4990882;28;20065;-71
2021/06/29 06:34:57;;;;;;;6.82;4.93;;;21.90;99.90;;;;;;4991552;28;20057;-72
2021/06/29 06:37:23;;;;;;;36.53;28.15;;;21.90;99.90;;;;;;4991198;28;20029;-72
2021/06/29 06:39:48;;;;;;;20.30;14.70;;;21.90;99.90;;;;;;4990997;28;20035;-71
2021/06/29 06:42:14;;;;;;;25.52;13.32;;;21.90;99.90;;;;;;4991120;28;20034;-70
2021/06/29 06:44:40;;;;;;;24.05;14.18;;;21.90;99.90;;;;;;4990267;28;20019;-71
2021/06/29 06:47:06;;;;;;;28.10;16.17;;;21.90;99.90;;;;;;4989815;28;20031;-71
2021/06/29 06:49:31;;;;;;;32.30;17.50;;;21.90;99.90;;;;;;4990643;28;20031;-72
2021/06/29 06:51:57;;;;;;;27.45;16.88;;;21.90;99.90;;;;;;4991725;28;20030;-71
2021/06/29 06:54:23;;;;;;;25.13;15.60;;;22.00;99.90;;;;;;4990560;28;20038;-71
2021/06/29 06:56:48;;;;;;;33.33;15.80;;;22.00;99.90;;;;;;4990899;28;20022;-73
2021/06/29 06:59:14;;;;;;;30.77;15.40;;;22.00;99.90;;;;;;4990403;28;20037;-74
2021/06/29 07:01:41;;;;;;;25.80;14.25;;;22.00;99.90;;;;;;4990482;28;20030;-76
2021/06/29 07:04:06;;;;;;;24.27;14.38;;;22.00;99.90;;;;;;4991744;28;20030;-71
2021/06/29 07:06:32;;;;;;;29.33;17.13;;;22.00;99.90;;;;;;4989873;28;20114;-77
2021/06/29 07:08:58;;;;;;;26.98;16.48;;;22.00;99.90;;;;;;4992859;28;20034;-75
2021/06/29 07:11:23;;;;;;;33.63;19.83;;;22.00;99.90;;;;;;4995174;28;20081;-74
2021/06/29 07:13:49;;;;;;;37.30;21.33;;;22.00;99.90;;;;;;4994463;28;20034;-75
2021/06/29 07:16:18;;;;;;;41.47;22.05;;;22.00;99.90;;;;;;4994537;28;20037;-75
2021/06/29 07:18:43;;;;;;;38.30;19.73;;;22.00;99.90;;;;;;5009485;28;20097;-73
2021/06/29 07:21:10;;;;;;;40.15;21.20;;;22.00;99.90;;;;;;4994377;28;20034;-74
2021/06/29 07:23:36;;;;;;;33.72;19.08;;;22.00;99.90;;;;;;4994281;28;20097;-72
2021/06/29 07:26:02;;;;;;;35.80;18.17;;;22.00;99.90;;;;;;4994580;28;20113;-72
2021/06/29 07:28:28;;;;;;;34.83;18.70;;;22.00;99.90;;;;;;4994539;28;20471;-71
2021/06/29 07:30:53;;;;;;;33.53;20.20;;;22.00;99.90;;;;;;4993642;28;20058;-74
2021/06/29 07:33:19;;;;;;;33.92;18.98;;;22.10;99.90;;;;;;4993508;28;20054;-72
2021/06/29 07:35:44;;;;;;;36.33;20.60;;;22.10;99.90;;;;;;4993868;28;20050;-77
2021/06/29 07:38:10;;;;;;;35.75;19.75;;;22.10;99.90;;;;;;4993625;28;20033;-75
2021/06/29 07:40:36;;;;;;;35.55;18.83;;;22.10;99.90;;;;;;4993041;28;20057;-76
2021/06/29 07:43:02;;;;;;;39.72;20.88;;;22.20;99.90;;;;;;4993799;28;20097;-73
2021/06/29 07:45:29;;;;;;;39.33;21.58;;;22.20;99.90;;;;;;4993719;28;20035;-74
2021/06/29 07:47:57;;;;;;;33.22;20.02;;;22.20;99.90;;;;;;4993953;28;20410;-74
2021/06/29 07:50:24;;;;;;;37.13;20.42;;;22.20;99.90;;;;;;4994415;28;20418;-73
2021/06/29 07:52:49;;;;;;;35.15;20.17;;;22.20;99.90;;;;;;4993758;28;20463;-74
2021/06/29 07:55:15;;;;;;;34.47;19.52;;;22.20;99.90;;;;;;4994197;28;20105;-73
2021/06/29 07:57:41;;;;;;;37.03;21.08;;;22.20;99.90;;;;;;4993087;28;20026;-73
2021/06/29 08:00:09;;;;;;;35.45;21.42;;;22.20;99.90;;;;;;4993370;28;20037;-74
2021/06/29 08:02:34;;;;;;;39.80;21.23;;;22.20;99.90;;;;;;4993488;28;20394;-77
2021/06/29 08:05:00;;;;;;;38.35;22.20;;;22.20;99.90;;;;;;4994345;28;20018;-74
2021/06/29 08:07:27;;;;;;;37.13;22.10;;;22.20;99.90;;;;;;4994009;28;20053;-73
2021/06/29 08:09:53;;;;;;;31.73;19.77;;;22.20;99.90;;;;;;4993602;28;20041;-73
2021/06/29 08:12:19;;;;;;;35.90;20.90;;;22.30;99.90;;;;;;4993826;28;20030;-74
2021/06/29 08:14:45;;;;;;;34.72;20.00;;;22.30;99.90;;;;;;4993022;28;20100;-73
2021/06/29 08:17:11;;;;;;;36.65;20.45;;;22.30;99.90;;;;;;4993146;28;20026;-74
2021/06/29 08:19:37;;;;;;;33.42;19.85;;;22.30;99.90;;;;;;4992791;28;20553;-73
2021/06/29 08:22:03;;;;;;;33.53;20.08;;;22.30;99.90;;;;;;4993028;28;20035;-73
2021/06/29 08:24:29;;;;;;;39.38;22.27;;;22.30;99.90;;;;;;4992446;28;20056;-74
2021/06/29 08:26:55;;;;;;;32.55;20.38;;;22.40;99.90;;;;;;4993385;28;20463;-76
2021/06/29 08:29:20;;;;;;;33.33;20.08;;;22.30;99.90;;;;;;4993457;28;20430;-73
2021/06/29 08:31:46;;;;;;;31.40;19.42;;;22.40;99.90;;;;;;4993183;28;20037;-73
2021/06/29 08:34:11;;;;;;;29.08;17.77;;;22.40;99.90;;;;;;4973817;28;20027;-74
2021/06/29 08:36:41;;;;;;;28.52;18.90;;;22.50;99.90;;;;;;4973547;28;20032;-72
2021/06/29 08:39:08;;;;;;;32.08;18.92;;;22.50;99.90;;;;;;4992457;28;20508;-73
2021/06/29 08:41:34;;;;;;;31.23;18.08;;;22.40;99.90;;;;;;4992528;28;20120;-73
2021/06/29 08:44:01;;;;;;;29.77;16.95;;;22.40;99.90;;;;;;4993272;28;20486;-71
2021/06/29 08:46:26;;;;;;;27.80;16.73;;;22.40;99.90;;;;;;4993585;28;20030;-75
2021/06/29 08:48:52;;;;;;;26.77;17.00;;;22.40;99.90;;;;;;4992930;28;20038;-74
2021/06/29 08:51:18;;;;;;;25.77;17.00;;;22.40;99.90;;;;;;4993015;28;20066;-73
2021/06/29 08:53:44;;;;;;;24.35;16.75;;;22.40;99.90;;;;;;4992915;28;20037;-73
2021/06/29 08:56:15;;;;;;;27.63;16.98;;;22.40;99.90;;;;;;4992740;28;20015;-72
2021/06/29 08:58:41;;;;;;;21.58;14.98;;;22.50;99.90;;;;;;4992875;28;20356;-73
2021/06/29 09:01:07;;;;;;;26.63;17.42;;;22.50;99.90;;;;;;4992192;28;20038;-75
2021/06/29 09:03:32;;;;;;;22.83;14.63;;;22.50;99.90;;;;;;4991676;28;20502;-76
2021/06/29 09:05:58;;;;;;;25.33;15.30;;;22.40;99.90;;;;;;4993153;28;20026;-76
2021/06/29 09:08:25;;;;;;;25.17;16.45;;;22.50;99.90;;;;;;4992523;28;20038;-77
2021/06/29 09:11:11;;;;;;;25.00;16.20;;;22.50;99.90;;;;;;4992667;28;20080;-75
2021/06/29 09:13:38;;;;;;;22.50;14.68;;;22.50;99.90;;;;;;4992203;28;20034;-73
2021/06/29 09:16:05;;;;;;;22.92;14.85;;;22.50;99.90;;;;;;4992534;28;20062;-75
2021/06/29 09:18:34;;;;;;;23.88;15.63;;;22.50;99.90;;;;;;4992826;28;20038;-73
2021/06/29 09:21:07;;;;;;;19.95;13.13;;;22.60;99.90;;;;;;4992891;28;20084;-72
2021/06/29 09:23:34;;;;;;;19.98;13.35;;;22.50;99.90;;;;;;4992363;28;20033;-75
2021/06/29 09:26:07;;;;;;;21.70;14.10;;;22.60;99.90;;;;;;4992821;28;20023;-73
2021/06/29 09:28:47;;;;;;;18.95;13.50;;;22.60;99.90;;;;;;4991825;28;20038;-72
2021/06/29 09:31:18;;;;;;;20.75;14.15;;;22.60;99.90;;;;;;4991745;28;20442;-74
2021/06/29 09:33:52;;;;;;;19.77;12.68;;;22.60;99.90;;;;;;4990979;28;20569;-73
2021/06/29 09:36:21;;;;;;;16.63;12.07;;;22.60;99.90;;;;;;4991752;28;20029;-75
2021/06/29 09:38:49;;;;;;;18.30;11.65;;;22.70;99.90;;;;;;4992117;28;20026;-72
2021/06/29 09:41:20;;;;;;;16.52;11.13;;;22.60;99.90;;;;;;4992314;28;20031;-73
2021/06/29 09:43:53;;;;;;;23.35;11.55;;;22.60;99.90;;;;;;4991675;28;20030;-73
2021/06/29 09:46:22;;;;;;;17.83;11.00;;;22.60;99.90;;;;;;4991981;28;20030;-74
2021/06/29 09:48:49;;;;;;;18.55;12.07;;;22.70;99.90;;;;;;4981227;28;20066;-72
2021/06/29 09:51:22;;;;;;;16.67;10.82;;;22.70;99.90;;;;;;4992041;28;20026;-73
2021/06/29 09:53:52;;;;;;;14.07;10.85;;;22.70;99.90;;;;;;4972324;28;20054;-73
2021/06/29 09:56:23;;;;;;;16.83;11.02;;;22.70;99.90;;;;;;4986185;28;20521;-72
2021/06/29 09:58:51;;;;;;;15.73;10.48;;;22.70;99.90;;;;;;4991326;28;20042;-73
2021/06/29 10:01:19;;;;;;;13.35;10.10;;;22.70;99.90;;;;;;4990732;28;20089;-72
2021/06/29 10:03:50;;;;;;;13.52;9.57;;;22.70;99.90;;;;;;4990641;28;20025;-73
2021/06/29 10:06:28;;;;;;;14.73;9.18;;;22.70;99.90;;;;;;4994160;28;20114;-73
2021/06/29 10:09:15;;;;;;;14.07;9.88;;;22.70;99.90;;;;;;4974590;28;20571;-72
2021/06/29 10:11:47;;;;;;;13.05;9.50;;;22.70;99.90;;;;;;4985865;28;20020;-72
2021/06/29 10:14:18;;;;;;;12.23;9.57;;;22.80;99.90;;;;;;4990902;28;20038;-73
2021/06/29 10:16:52;;;;;;;12.75;9.40;;;22.80;99.90;;;;;;4991048;28;20026;-73
2021/06/29 10:19:36;;;;;;;13.77;10.17;;;22.80;99.90;;;;;;4990547;28;20030;-73
2021/06/29 10:22:06;;;;;;;12.85;9.15;;;22.80;99.90;;;;;;4989061;28;20038;-72
2021/06/29 10:24:34;;;;;;;12.30;8.82;;;22.80;99.90;;;;;;4996837;28;20018;-71
2021/06/29 10:27:02;;;;;;;12.70;9.00;;;22.80;99.90;;;;;;4998691;28;20110;-74
2021/06/29 10:29:31;;;;;;;10.95;8.68;;;22.80;99.90;;;;;;4991641;28;20030;-72
2021/06/29 10:31:59;;;;;;;10.07;8.18;;;22.90;99.90;;;;;;4990412;28;20057;-73
2021/06/29 10:34:25;;;;;;;13.10;8.45;;;22.90;99.90;;;;;;4991778;28;20034;-72
2021/06/29 10:36:54;;;;;;;13.30;8.55;;;22.90;99.90;;;;;;4990568;28;20042;-72
2021/06/29 10:39:27;;;;;;;9.27;7.35;;;22.90;99.90;;;;;;4988808;28;20050;-74
2021/06/29 10:42:06;;;;;;;11.25;7.55;;;22.90;99.90;;;;;;4985529;28;20406;-74
2021/06/29 10:44:45;;;;;;;14.00;8.20;;;23.00;99.90;;;;;;4993886;28;20521;-73
2021/06/29 10:47:32;;;;;;;9.73;7.78;;;23.00;99.90;;;;;;4994356;28;20442;-73
2021/06/29 10:50:03;;;;;;;10.60;7.57;;;23.00;99.90;;;;;;4994839;28;20773;-74
2021/06/29 10:52:31;;;;;;;14.20;8.80;;;23.00;99.90;;;;;;4993515;28;20388;-72
2021/06/29 10:54:57;;;;;;;10.50;7.68;;;23.00;99.90;;;;;;4993993;28;20038;-73
2021/06/29 10:57:26;;;;;;;12.85;8.25;;;23.10;99.90;;;;;;4990361;28;20041;-73
2021/06/29 10:59:58;;;;;;;14.90;8.80;;;23.10;99.90;;;;;;4992499;28;20064;-75
2021/06/29 11:02:33;;;;;;;10.63;7.80;;;23.10;99.90;;;;;;4993438;28;20034;-71
2021/06/29 11:05:01;;;;;;;13.65;8.10;;;23.10;99.90;;;;;;4992109;28;20417;-71
2021/06/29 11:07:27;;;;;;;11.18;7.10;;;23.20;99.90;;;;;;4991666;28;20044;-72
2021/06/29 11:09:55;;;;;;;15.43;7.63;;;23.30;99.90;;;;;;4993392;28;20555;-74
2021/06/29 11:12:25;;;;;;;10.85;6.90;;;23.30;99.90;;;;;;4993482;28;20454;-73
2021/06/29 11:14:57;;;;;;;13.98;7.32;;;23.30;99.90;;;;;;4992472;28;20499;-71
2021/06/29 11:17:43;;;;;;;11.93;7.80;;;23.30;99.90;;;;;;4993608;28;20065;-72
2021/06/29 11:20:12;;;;;;;10.80;7.85;;;23.30;99.90;;;;;;4992632;28;20545;-72
2021/06/29 11:23:00;;;;;;;12.40;7.38;;;23.30;99.90;;;;;;4992330;28;20036;-72
2021/06/29 11:25:42;;;;;;;11.57;7.38;;;23.30;99.90;;;;;;5008533;28;20498;-72
2021/06/29 11:28:13;;;;;;;8.77;7.25;;;23.20;99.90;;;;;;4992428;28;21363;-74
2021/06/29 11:31:02;;;;;;;9.98;7.20;;;23.30;99.90;;;;;;4992085;28;20025;-73
2021/06/29 11:33:32;;;;;;;11.38;6.55;;;23.30;99.90;;;;;;4994530;28;20109;-76
2021/06/29 11:35:58;;;;;;;9.95;6.70;;;23.30;99.90;;;;;;4992750;28;20024;-73
2021/06/29 11:38:38;;;;;;;10.90;6.20;;;23.40;99.90;;;;;;4991994;28;20034;-74
2021/06/29 11:41:27;;;;;;;8.73;6.05;;;23.40;99.90;;;;;;4993245;28;20039;-75
2021/06/29 11:43:59;;;;;;;7.65;5.38;;;23.40;99.90;;;;;;4990342;28;20402;-73
2021/06/29 11:46:50;;;;;;;10.30;6.20;;;23.40;99.90;;;;;;4992309;28;20030;-75
2021/06/29 11:49:34;;;;;;;10.25;5.75;;;23.40;99.90;;;;;;4993147;28;20038;-71
2021/06/29 11:52:01;;;;;;;7.75;5.20;;;23.50;99.90;;;;;;4999542;28;20087;-74
2021/06/29 11:54:37;;;;;;;8.43;5.50;;;23.50;99.90;;;;;;4993192;28;20446;-74
2021/06/29 11:57:23;;;;;;;10.00;6.18;;;23.40;99.90;;;;;;4994243;28;20395;-74
2021/06/29 11:59:51;;;;;;;9.32;5.57;;;23.50;99.90;;;;;;4992123;28;20493;-74
2021/06/29 12:02:23;;;;;;;6.78;5.18;;;23.50;99.90;;;;;;4993377;28;20050;-74
2021/06/29 12:05:00;;;;;;;10.10;5.72;;;23.50;99.90;;;;;;4992960;28;20072;-74
2021/06/29 12:07:35;;;;;;;9.35;5.57;;;23.60;99.90;;;;;;4992201;28;20033;-73
2021/06/29 12:10:07;;;;;;;8.68;5.78;;;23.60;99.90;;;;;;4991379;28;20035;-73
2021/06/29 12:12:33;;;;;;;7.80;5.32;;;23.60;99.90;;;;;;4994133;28;20030;-73
2021/06/29 12:15:07;;;;;;;8.35;5.90;;;23.50;99.90;;;;;;5000821;28;20026;-73
2021/06/29 12:17:34;;;;;;;6.63;5.38;;;23.60;99.90;;;;;;4993045;28;20109;-74
2021/06/29 12:20:23;;;;;;;9.98;5.50;;;23.50;99.90;;;;;;4992301;28;20030;-73
2021/06/29 12:22:50;;;;;;;7.03;5.13;;;23.50;99.90;;;;;;4991828;28;20069;-73
2021/06/29 12:25:37;;;;;;;7.35;4.97;;;23.50;99.90;;;;;;4993427;28;20065;-74
2021/06/29 12:28:11;;;;;;;10.25;6.10;;;23.50;99.90;;;;;;4992974;28;20038;-74
2021/06/29 12:30:39;;;;;;;7.60;5.50;;;23.40;99.90;;;;;;4992900;28;20826;-73
2021/06/29 12:33:12;;;;;;;7.00;5.60;;;23.40;99.90;;;;;;4993138;28;20042;-74
2021/06/29 12:35:38;;;;;;;7.53;5.32;;;23.40;99.90;;;;;;4993214;28;20050;-73
2021/06/29 12:38:07;;;;;;;8.60;5.78;;;23.30;99.90;;;;;;5007974;28;20084;-75
2021/06/29 12:40:34;;;;;;;7.88;5.85;;;23.30;99.90;;;;;;4993016;28;20022;-73
2021/06/29 12:43:15;;;;;;;7.53;5.43;;;23.40;99.90;;;;;;4992638;28;20068;-73
2021/06/29 12:45:41;;;;;;;8.73;6.03;;;23.40;99.90;;;;;;4993114;28;20023;-74